createdAt,value
2022-11-04T00:04:08.808Z,100021.97
2022-11-04T00:14:10.066Z,100025.00
2022-11-04T00:24:11.305Z,100034.50
2022-11-04T00:34:12.523Z,100042.06
2022-11-04T00:44:13.737Z,100055.16
2022-11-04T00:54:14.969Z,100060.44
2022-11-04T01:04:16.267Z,100079.53
2022-11-04T01:14:17.479Z,100083.56
2022-11-04T01:24:18.753Z,100098.19
2022-11-04T01:34:19.975Z,100092.88
2022-11-04T01:44:21.181Z,100091.88
2022-11-04T01:54:22.394Z,100102.22
2022-11-04T02:04:23.612Z,100097.16
2022-11-04T02:14:24.836Z,100092.66
2022-11-04T02:24:26.111Z,100102.44
2022-11-04T02:34:27.351Z,100112.25
2022-11-04T02:44:28.575Z,100123.06
2022-11-04T02:54:29.783Z,100117.50
2022-11-04T03:04:31.004Z,100114.50
2022-11-04T03:14:32.264Z,100117.53
2022-11-04T03:24:33.514Z,100126.34
2022-11-04T03:34:34.730Z,100128.34
2022-11-04T03:44:35.930Z,100132.13
2022-11-04T03:54:37.163Z,100136.16
2022-11-04T04:04:38.380Z,100130.38
2022-11-04T04:14:39.578Z,100132.41
2022-11-04T04:24:40.810Z,100142.97
2022-11-04T04:34:42.020Z,100160.03
2022-11-04T04:44:43.230Z,100167.09
2022-11-04T04:54:44.453Z,100175.31
2022-11-04T05:04:45.685Z,100182.88
2022-11-04T05:14:46.940Z,100197.19
2022-11-04T05:24:48.160Z,100197.94
2022-11-04T05:34:49.390Z,100211.25
2022-11-04T05:44:50.624Z,100212.00
2022-11-04T05:54:51.976Z,100223.53
2022-11-04T06:04:53.202Z,100241.84
2022-11-04T06:14:54.408Z,100240.63
2022-11-04T06:24:55.664Z,100244.88
2022-11-04T06:34:56.908Z,100250.13
2022-11-04T06:44:58.157Z,100261.72
2022-11-04T06:54:59.398Z,100274.78
2022-11-04T07:05:03.197Z,100302.22
2022-11-04T07:15:04.646Z,100307.50
2022-11-04T07:25:05.864Z,100318.50
2022-11-04T07:35:07.081Z,100310.22
2022-11-04T07:45:08.410Z,100336.38
2022-11-04T07:55:09.629Z,100338.63
2022-11-04T08:05:10.904Z,100342.88
2022-11-04T08:15:12.145Z,100349.94
2022-11-04T08:25:13.508Z,100363.47
2022-11-04T08:35:14.779Z,100381.59
2022-11-04T08:45:22.617Z,100385.84
2022-11-04T08:55:30.623Z,100397.63
2022-11-04T09:05:39.557Z,100408.94
2022-11-04T09:15:47.473Z,100434.34
2022-11-04T09:25:54.526Z,100438.16
2022-11-04T09:36:02.630Z,100461.03
2022-11-04T09:46:04.068Z,100476.09
2022-11-04T09:56:06.842Z,100480.91
2022-11-04T10:06:08.082Z,100490.44
2022-11-04T10:16:09.310Z,100497.97
2022-11-04T10:26:10.573Z,100505.75
2022-11-04T10:36:11.789Z,100519.88
2022-11-04T10:46:13.057Z,100534.94
2022-11-04T10:56:14.368Z,100541.47
2022-11-04T11:06:15.694Z,100542.50
2022-11-04T11:16:16.959Z,100537.22
2022-11-04T11:26:28.870Z,100549.78
2022-11-04T11:36:33.627Z,100555.31
2022-11-04T11:46:42.854Z,100549.03
2022-11-04T12:17:33.191Z,100576.94
2022-11-04T12:27:34.423Z,100585.25
2022-11-04T12:37:35.652Z,100601.81
2022-11-04T12:47:36.913Z,100624.47
2022-11-04T12:57:41.547Z,100617.66
2022-11-04T13:07:49.680Z,100626.22
2022-11-04T13:17:58.380Z,100651.38
2022-11-04T13:28:13.829Z,100658.44
2022-11-04T13:38:17.052Z,100678.06
2022-11-04T13:48:21.662Z,100696.44
2022-11-04T13:58:22.909Z,100702.19
2022-11-04T14:08:24.199Z,100720.81
2022-11-04T14:18:25.553Z,100726.84
2022-11-04T14:28:26.827Z,100747.72
2022-11-04T14:38:28.064Z,100760.28
2022-11-04T14:48:29.305Z,100777.38
2022-11-04T14:58:30.516Z,100792.97
2022-11-04T15:08:31.751Z,100812.09
2022-11-04T15:18:32.982Z,100822.38
2022-11-04T15:28:34.257Z,100846.28
2022-11-04T15:38:35.506Z,100856.03
2022-11-04T15:48:36.798Z,100856.78
2022-11-04T15:58:38.034Z,100863.53
2022-11-04T16:08:39.240Z,100875.38
2022-11-04T16:18:40.590Z,100894.22
2022-11-04T16:28:41.814Z,100911.78
2022-11-04T16:38:43.030Z,100927.34
2022-11-04T16:48:44.330Z,100935.16
2022-11-04T16:58:45.545Z,100950.25
2022-11-04T17:08:46.765Z,100972.59
2022-11-04T17:18:48.100Z,100988.69
2022-11-04T17:29:01.649Z,100999.97
2022-11-04T17:39:02.968Z,101011.53
2022-11-04T17:49:04.290Z,101023.34
2022-11-04T17:59:05.536Z,101028.34
2022-11-04T18:09:06.773Z,101038.16
2022-11-04T18:19:08.013Z,101049.19
2022-11-04T18:29:09.393Z,101065.00
2022-11-04T18:39:10.727Z,101071.78
2022-11-04T18:49:12.064Z,101084.84
2022-11-04T18:59:13.389Z,101085.91
2022-11-04T19:19:36.072Z,101104.47
2022-11-04T19:29:37.349Z,101118.56
2022-11-04T19:39:38.689Z,101138.91
2022-11-04T19:49:40.069Z,101139.16
2022-11-04T19:59:41.328Z,101150.91
2022-11-04T20:09:42.698Z,101172.34
2022-11-04T20:19:44.054Z,101180.38
2022-11-04T20:29:45.417Z,101183.41
2022-11-04T20:39:46.861Z,101205.19
2022-11-04T20:49:48.265Z,101216.03
2022-11-04T20:59:49.552Z,101238.69
2022-11-04T21:09:50.812Z,101244.91
2022-11-04T21:19:52.108Z,101248.66
2022-11-04T21:29:53.433Z,101265.81
2022-11-04T21:39:54.812Z,101291.94
2022-11-04T21:49:56.125Z,101302.72
2022-11-04T21:59:57.362Z,101311.03
2022-11-04T22:09:58.752Z,101318.25
2022-11-04T22:20:00.077Z,101317.03
2022-11-04T22:30:01.447Z,101326.84
2022-11-04T22:40:02.840Z,101339.91
2022-11-04T22:50:04.185Z,101340.13
2022-11-04T23:00:05.537Z,101335.06
2022-11-04T23:10:06.850Z,101340.88
2022-11-04T23:20:08.232Z,101350.69
2022-11-04T23:30:09.571Z,101346.41
2022-11-04T23:40:10.801Z,101358.91
2022-11-04T23:50:12.049Z,101357.16
